sensor_id;sensor_type;location;lat;lon;timestamp;P1;durP1;ratioP1;P2;durP2;ratioP2
17890;SDS011;9071;48.220;14.480;2023-11-21T00:02:26;15.33;;;7.77;;
17890;SDS011;9071;48.220;14.480;2023-11-21T00:07:28;14.97;;;8.27;;
17890;SDS011;9071;48.220;14.480;2023-11-21T00:12:30;15.63;;;8.83;;
17890;SDS011;9071;48.220;14.480;2023-11-21T00:17:34;14.80;;;8.27;;
17890;SDS011;9071;48.220;14.480;2023-11-21T00:22:37;16.47;;;8.23;;
17890;SDS011;9071;48.220;14.480;2023-11-21T00:27:40;12.30;;;7.63;;
17890;SDS011;9071;48.220;14.480;2023-11-21T00:32:44;13.73;;;7.97;;
17890;SDS011;9071;48.220;14.480;2023-11-21T00:37:46;17.07;;;9.07;;
17890;SDS011;9071;48.220;14.480;2023-11-21T00:42:49;13.17;;;8.23;;
17890;SDS011;9071;48.220;14.480;2023-11-21T00:47:53;13.37;;;8.97;;
17890;SDS011;9071;48.220;14.480;2023-11-21T00:52:55;16.70;;;10.43;;
17890;SDS011;9071;48.220;14.480;2023-11-21T00:57:57;17.67;;;9.83;;
17890;SDS011;9071;48.220;14.480;2023-11-21T01:03:01;19.00;;;10.17;;
17890;SDS011;9071;48.220;14.480;2023-11-21T01:08:03;20.43;;;11.47;;
17890;SDS011;9071;48.220;14.480;2023-11-21T01:13:06;15.63;;;9.13;;
17890;SDS011;9071;48.220;14.480;2023-11-21T01:18:09;15.97;;;9.07;;
17890;SDS011;9071;48.220;14.480;2023-11-21T01:23:11;17.67;;;10.40;;
17890;SDS011;9071;48.220;14.480;2023-11-21T01:28:14;18.20;;;11.47;;
17890;SDS011;9071;48.220;14.480;2023-11-21T01:33:17;29.70;;;13.47;;
17890;SDS011;9071;48.220;14.480;2023-11-21T01:38:19;31.60;;;14.87;;
17890;SDS011;9071;48.220;14.480;2023-11-21T01:43:22;19.17;;;11.00;;
17890;SDS011;9071;48.220;14.480;2023-11-21T01:48:26;19.80;;;10.27;;
17890;SDS011;9071;48.220;14.480;2023-11-21T01:53:29;16.47;;;9.70;;
17890;SDS011;9071;48.220;14.480;2023-11-21T01:58:31;16.57;;;9.77;;
17890;SDS011;9071;48.220;14.480;2023-11-21T02:03:35;15.40;;;8.83;;
17890;SDS011;9071;48.220;14.480;2023-11-21T02:08:37;14.83;;;8.63;;
17890;SDS011;9071;48.220;14.480;2023-11-21T02:13:39;20.63;;;9.37;;
17890;SDS011;9071;48.220;14.480;2023-11-21T02:18:44;17.30;;;9.30;;
17890;SDS011;9071;48.220;14.480;2023-11-21T02:23:49;16.27;;;8.80;;
17890;SDS011;9071;48.220;14.480;2023-11-21T02:28:51;19.00;;;9.67;;
17890;SDS011;9071;48.220;14.480;2023-11-21T02:33:54;24.03;;;11.03;;
17890;SDS011;9071;48.220;14.480;2023-11-21T02:38:59;17.23;;;9.87;;
17890;SDS011;9071;48.220;14.480;2023-11-21T02:44:01;18.80;;;9.73;;
17890;SDS011;9071;48.220;14.480;2023-11-21T02:49:04;18.23;;;9.63;;
17890;SDS011;9071;48.220;14.480;2023-11-21T02:54:08;11.87;;;8.77;;
17890;SDS011;9071;48.220;14.480;2023-11-21T02:59:10;14.47;;;9.00;;
17890;SDS011;9071;48.220;14.480;2023-11-21T03:04:12;16.17;;;9.13;;
17890;SDS011;9071;48.220;14.480;2023-11-21T03:09:19;16.87;;;10.00;;
17890;SDS011;9071;48.220;14.480;2023-11-21T03:14:21;15.43;;;9.67;;
17890;SDS011;9071;48.220;14.480;2023-11-21T03:19:23;15.83;;;10.50;;
17890;SDS011;9071;48.220;14.480;2023-11-21T03:24:26;15.60;;;9.40;;
17890;SDS011;9071;48.220;14.480;2023-11-21T03:29:28;16.97;;;9.27;;
17890;SDS011;9071;48.220;14.480;2023-11-21T03:34:30;24.27;;;11.50;;
17890;SDS011;9071;48.220;14.480;2023-11-21T03:39:34;16.90;;;10.20;;
17890;SDS011;9071;48.220;14.480;2023-11-21T03:44:36;24.47;;;10.90;;
17890;SDS011;9071;48.220;14.480;2023-11-21T03:49:38;19.07;;;9.30;;
17890;SDS011;9071;48.220;14.480;2023-11-21T03:54:41;19.90;;;10.60;;
17890;SDS011;9071;48.220;14.480;2023-11-21T03:59:44;25.57;;;12.50;;
17890;SDS011;9071;48.220;14.480;2023-11-21T04:04:46;30.83;;;14.57;;
17890;SDS011;9071;48.220;14.480;2023-11-21T04:09:49;20.83;;;12.37;;
17890;SDS011;9071;48.220;14.480;2023-11-21T04:14:51;18.50;;;10.73;;
17890;SDS011;9071;48.220;14.480;2023-11-21T04:19:54;21.00;;;12.13;;
17890;SDS011;9071;48.220;14.480;2023-11-21T04:24:57;24.73;;;13.97;;
17890;SDS011;9071;48.220;14.480;2023-11-21T04:29:59;25.10;;;12.77;;
17890;SDS011;9071;48.220;14.480;2023-11-21T04:35:02;20.63;;;13.27;;
17890;SDS011;9071;48.220;14.480;2023-11-21T04:40:07;20.67;;;12.33;;
17890;SDS011;9071;48.220;14.480;2023-11-21T04:45:09;19.07;;;11.90;;
17890;SDS011;9071;48.220;14.480;2023-11-21T04:50:11;18.53;;;12.23;;
17890;SDS011;9071;48.220;14.480;2023-11-21T04:55:15;22.00;;;12.43;;
17890;SDS011;9071;48.220;14.480;2023-11-21T05:00:17;25.93;;;14.63;;
17890;SDS011;9071;48.220;14.480;2023-11-21T05:05:21;18.83;;;11.97;;
17890;SDS011;9071;48.220;14.480;2023-11-21T05:10:25;23.77;;;14.53;;
17890;SDS011;9071;48.220;14.480;2023-11-21T05:15:27;19.03;;;12.67;;
17890;SDS011;9071;48.220;14.480;2023-11-21T05:20:29;18.40;;;13.50;;
17890;SDS011;9071;48.220;14.480;2023-11-21T05:25:33;21.90;;;12.17;;
17890;SDS011;9071;48.220;14.480;2023-11-21T05:30:35;21.17;;;12.13;;
17890;SDS011;9071;48.220;14.480;2023-11-21T05:35:38;23.30;;;12.10;;
17890;SDS011;9071;48.220;14.480;2023-11-21T05:40:42;21.50;;;10.90;;
17890;SDS011;9071;48.220;14.480;2023-11-21T05:45:44;15.13;;;10.43;;
17890;SDS011;9071;48.220;14.480;2023-11-21T05:50:46;25.40;;;16.23;;
17890;SDS011;9071;48.220;14.480;2023-11-21T05:55:50;22.60;;;12.50;;
17890;SDS011;9071;48.220;14.480;2023-11-21T06:00:52;15.27;;;10.53;;
17890;SDS011;9071;48.220;14.480;2023-11-21T06:05:54;18.33;;;11.10;;
17890;SDS011;9071;48.220;14.480;2023-11-21T06:10:57;22.07;;;12.03;;
17890;SDS011;9071;48.220;14.480;2023-11-21T06:16:00;21.53;;;12.83;;
17890;SDS011;9071;48.220;14.480;2023-11-21T06:21:02;20.03;;;12.20;;
17890;SDS011;9071;48.220;14.480;2023-11-21T06:26:05;24.37;;;13.27;;
17890;SDS011;9071;48.220;14.480;2023-11-21T06:31:09;24.63;;;13.93;;
17890;SDS011;9071;48.220;14.480;2023-11-21T06:36:12;21.17;;;14.77;;
17890;SDS011;9071;48.220;14.480;2023-11-21T06:41:16;35.27;;;15.20;;
17890;SDS011;9071;48.220;14.480;2023-11-21T06:46:18;34.17;;;14.83;;
17890;SDS011;9071;48.220;14.480;2023-11-21T06:51:20;31.43;;;14.33;;
17890;SDS011;9071;48.220;14.480;2023-11-21T06:56:23;36.53;;;16.70;;
17890;SDS011;9071;48.220;14.480;2023-11-21T07:01:25;30.60;;;14.97;;
17890;SDS011;9071;48.220;14.480;2023-11-21T07:06:27;27.53;;;15.37;;
17890;SDS011;9071;48.220;14.480;2023-11-21T07:11:31;29.17;;;15.40;;
17890;SDS011;9071;48.220;14.480;2023-11-21T07:16:33;23.03;;;13.77;;
17890;SDS011;9071;48.220;14.480;2023-11-21T07:21:37;23.40;;;14.57;;
17890;SDS011;9071;48.220;14.480;2023-11-21T07:26:41;47.67;;;17.80;;
17890;SDS011;9071;48.220;14.480;2023-11-21T07:31:43;28.60;;;16.47;;
17890;SDS011;9071;48.220;14.480;2023-11-21T07:36:45;26.73;;;15.73;;
17890;SDS011;9071;48.220;14.480;2023-11-21T07:41:49;39.10;;;19.47;;
17890;SDS011;9071;48.220;14.480;2023-11-21T07:46:51;26.17;;;15.37;;
17890;SDS011;9071;48.220;14.480;2023-11-21T07:51:57;21.10;;;13.57;;
17890;SDS011;9071;48.220;14.480;2023-11-21T07:57:00;23.07;;;14.67;;
17890;SDS011;9071;48.220;14.480;2023-11-21T08:02:04;25.40;;;15.13;;
17890;SDS011;9071;48.220;14.480;2023-11-21T08:07:06;20.57;;;13.47;;
17890;SDS011;9071;48.220;14.480;2023-11-21T08:12:11;20.97;;;14.47;;
17890;SDS011;9071;48.220;14.480;2023-11-21T08:17:14;24.47;;;14.03;;
17890;SDS011;9071;48.220;14.480;2023-11-21T08:22:17;23.73;;;14.27;;
17890;SDS011;9071;48.220;14.480;2023-11-21T08:27:20;21.53;;;13.40;;
17890;SDS011;9071;48.220;14.480;2023-11-21T08:32:22;23.10;;;14.60;;
17890;SDS011;9071;48.220;14.480;2023-11-21T08:37:24;20.77;;;12.83;;
17890;SDS011;9071;48.220;14.480;2023-11-21T08:42:28;18.20;;;12.07;;
17890;SDS011;9071;48.220;14.480;2023-11-21T08:47:30;17.40;;;10.77;;
17890;SDS011;9071;48.220;14.480;2023-11-21T08:52:32;16.90;;;11.93;;
17890;SDS011;9071;48.220;14.480;2023-11-21T08:57:36;17.97;;;11.27;;
17890;SDS011;9071;48.220;14.480;2023-11-21T09:02:39;17.27;;;10.17;;
17890;SDS011;9071;48.220;14.480;2023-11-21T09:07:42;18.43;;;11.33;;
17890;SDS011;9071;48.220;14.480;2023-11-21T09:12:47;17.80;;;10.47;;
17890;SDS011;9071;48.220;14.480;2023-11-21T09:17:49;19.10;;;11.13;;
17890;SDS011;9071;48.220;14.480;2023-11-21T09:22:51;16.87;;;9.80;;
17890;SDS011;9071;48.220;14.480;2023-11-21T09:27:56;20.73;;;10.23;;
17890;SDS011;9071;48.220;14.480;2023-11-21T09:32:59;20.90;;;10.63;;
17890;SDS011;9071;48.220;14.480;2023-11-21T09:38:01;20.00;;;10.83;;
17890;SDS011;9071;48.220;14.480;2023-11-21T09:43:08;17.20;;;9.67;;
17890;SDS011;9071;48.220;14.480;2023-11-21T09:48:16;19.27;;;9.80;;
17890;SDS011;9071;48.220;14.480;2023-11-21T09:53:19;14.60;;;9.60;;
17890;SDS011;9071;48.220;14.480;2023-11-21T09:58:26;21.37;;;9.50;;
17890;SDS011;9071;48.220;14.480;2023-11-21T10:03:29;19.70;;;10.33;;
17890;SDS011;9071;48.220;14.480;2023-11-21T10:08:31;18.67;;;10.80;;
17890;SDS011;9071;48.220;14.480;2023-11-21T10:13:36;27.43;;;13.07;;
17890;SDS011;9071;48.220;14.480;2023-11-21T10:18:38;18.47;;;11.23;;
17890;SDS011;9071;48.220;14.480;2023-11-21T10:23:40;16.13;;;7.80;;
17890;SDS011;9071;48.220;14.480;2023-11-21T10:28:55;17.57;;;7.77;;
17890;SDS011;9071;48.220;14.480;2023-11-21T10:34:11;13.43;;;7.73;;
17890;SDS011;9071;48.220;14.480;2023-11-21T10:39:14;10.67;;;6.77;;
17890;SDS011;9071;48.220;14.480;2023-11-21T10:44:20;13.63;;;7.10;;
17890;SDS011;9071;48.220;14.480;2023-11-21T10:49:24;14.13;;;7.70;;
17890;SDS011;9071;48.220;14.480;2023-11-21T10:54:27;19.07;;;8.27;;
17890;SDS011;9071;48.220;14.480;2023-11-21T10:59:30;18.57;;;8.57;;
17890;SDS011;9071;48.220;14.480;2023-11-21T11:04:32;16.83;;;11.10;;
17890;SDS011;9071;48.220;14.480;2023-11-21T11:09:38;13.60;;;8.97;;
17890;SDS011;9071;48.220;14.480;2023-11-21T11:14:41;17.63;;;8.57;;
17890;SDS011;9071;48.220;14.480;2023-11-21T11:19:45;18.27;;;9.33;;
17890;SDS011;9071;48.220;14.480;2023-11-21T11:24:52;16.60;;;9.03;;
17890;SDS011;9071;48.220;14.480;2023-11-21T11:30:20;15.60;;;10.70;;
17890;SDS011;9071;48.220;14.480;2023-11-21T11:35:33;16.53;;;8.43;;
17890;SDS011;9071;48.220;14.480;2023-11-21T11:40:39;11.57;;;7.70;;
17890;SDS011;9071;48.220;14.480;2023-11-21T11:45:43;19.37;;;10.80;;
17890;SDS011;9071;48.220;14.480;2023-11-21T11:51:01;19.00;;;9.90;;
17890;SDS011;9071;48.220;14.480;2023-11-21T11:56:21;9.23;;;6.73;;
17890;SDS011;9071;48.220;14.480;2023-11-21T12:01:27;11.17;;;5.60;;
17890;SDS011;9071;48.220;14.480;2023-11-21T12:06:33;7.23;;;4.80;;
17890;SDS011;9071;48.220;14.480;2023-11-21T12:11:36;6.93;;;3.70;;
17890;SDS011;9071;48.220;14.480;2023-11-21T12:16:39;6.27;;;3.70;;
17890;SDS011;9071;48.220;14.480;2023-11-21T12:21:43;8.00;;;5.20;;
17890;SDS011;9071;48.220;14.480;2023-11-21T12:26:45;7.57;;;3.60;;
17890;SDS011;9071;48.220;14.480;2023-11-21T12:31:50;8.90;;;4.00;;
17890;SDS011;9071;48.220;14.480;2023-11-21T12:36:52;16.23;;;10.17;;
17890;SDS011;9071;48.220;14.480;2023-11-21T12:41:55;6.77;;;4.13;;
17890;SDS011;9071;48.220;14.480;2023-11-21T12:46:59;4.23;;;2.57;;
17890;SDS011;9071;48.220;14.480;2023-11-21T12:52:01;6.17;;;2.70;;
17890;SDS011;9071;48.220;14.480;2023-11-21T12:57:04;9.17;;;2.83;;
17890;SDS011;9071;48.220;14.480;2023-11-21T13:02:09;5.50;;;2.50;;
17890;SDS011;9071;48.220;14.480;2023-11-21T13:07:14;4.43;;;2.90;;
17890;SDS011;9071;48.220;14.480;2023-11-21T13:12:17;6.90;;;3.00;;
17890;SDS011;9071;48.220;14.480;2023-11-21T13:17:26;5.80;;;2.80;;
17890;SDS011;9071;48.220;14.480;2023-11-21T13:22:29;6.13;;;2.40;;
17890;SDS011;9071;48.220;14.480;2023-11-21T13:27:31;4.17;;;2.50;;
17890;SDS011;9071;48.220;14.480;2023-11-21T13:32:36;4.57;;;2.60;;
17890;SDS011;9071;48.220;14.480;2023-11-21T13:37:38;4.70;;;2.50;;
17890;SDS011;9071;48.220;14.480;2023-11-21T13:42:40;7.43;;;2.80;;
17890;SDS011;9071;48.220;14.480;2023-11-21T13:47:44;5.43;;;3.10;;
17890;SDS011;9071;48.220;14.480;2023-11-21T13:52:46;4.73;;;3.37;;
17890;SDS011;9071;48.220;14.480;2023-11-21T13:57:48;4.70;;;3.20;;
17890;SDS011;9071;48.220;14.480;2023-11-21T14:02:54;5.80;;;3.53;;
17890;SDS011;9071;48.220;14.480;2023-11-21T14:08:00;5.87;;;3.53;;
17890;SDS011;9071;48.220;14.480;2023-11-21T14:13:04;4.70;;;3.23;;
17890;SDS011;9071;48.220;14.480;2023-11-21T14:18:08;5.40;;;2.93;;
17890;SDS011;9071;48.220;14.480;2023-11-21T14:23:12;5.63;;;4.00;;
17890;SDS011;9071;48.220;14.480;2023-11-21T14:28:15;5.77;;;4.13;;
17890;SDS011;9071;48.220;14.480;2023-11-21T14:33:18;9.13;;;5.27;;
17890;SDS011;9071;48.220;14.480;2023-11-21T14:38:20;9.33;;;4.77;;
17890;SDS011;9071;48.220;14.480;2023-11-21T14:43:22;6.77;;;4.30;;
17890;SDS011;9071;48.220;14.480;2023-11-21T14:48:27;6.70;;;5.07;;
17890;SDS011;9071;48.220;14.480;2023-11-21T14:53:42;4.93;;;4.10;;
17890;SDS011;9071;48.220;14.480;2023-11-21T14:58:54;7.83;;;4.70;;
17890;SDS011;9071;48.220;14.480;2023-11-21T15:03:58;8.90;;;5.30;;
17890;SDS011;9071;48.220;14.480;2023-11-21T15:09:00;11.60;;;5.97;;
17890;SDS011;9071;48.220;14.480;2023-11-21T15:14:19;9.90;;;6.23;;
17890;SDS011;9071;48.220;14.480;2023-11-21T15:19:26;11.93;;;7.00;;
17890;SDS011;9071;48.220;14.480;2023-11-21T15:24:30;9.27;;;6.17;;
17890;SDS011;9071;48.220;14.480;2023-11-21T15:29:32;8.03;;;5.60;;
17890;SDS011;9071;48.220;14.480;2023-11-21T15:34:36;13.53;;;6.37;;
17890;SDS011;9071;48.220;14.480;2023-11-21T15:39:39;6.70;;;4.47;;
17890;SDS011;9071;48.220;14.480;2023-11-21T15:44:41;6.83;;;4.90;;
17890;SDS011;9071;48.220;14.480;2023-11-21T15:49:45;9.67;;;5.97;;
17890;SDS011;9071;48.220;14.480;2023-11-21T15:54:48;6.73;;;5.40;;
17890;SDS011;9071;48.220;14.480;2023-11-21T15:59:50;14.83;;;5.70;;
17890;SDS011;9071;48.220;14.480;2023-11-21T16:04:53;12.10;;;7.90;;
17890;SDS011;9071;48.220;14.480;2023-11-21T16:09:56;13.17;;;9.13;;
17890;SDS011;9071;48.220;14.480;2023-11-21T16:14:59;11.73;;;7.67;;
17890;SDS011;9071;48.220;14.480;2023-11-21T16:20:09;12.67;;;9.30;;
17890;SDS011;9071;48.220;14.480;2023-11-21T16:25:14;11.27;;;5.90;;
17890;SDS011;9071;48.220;14.480;2023-11-21T16:30:16;11.43;;;7.00;;
17890;SDS011;9071;48.220;14.480;2023-11-21T16:35:24;13.60;;;7.67;;
17890;SDS011;9071;48.220;14.480;2023-11-21T16:40:27;10.00;;;5.40;;
17890;SDS011;9071;48.220;14.480;2023-11-21T16:45:29;11.40;;;7.00;;
17890;SDS011;9071;48.220;14.480;2023-11-21T16:50:32;10.87;;;6.87;;
17890;SDS011;9071;48.220;14.480;2023-11-21T16:55:34;13.70;;;8.07;;
17890;SDS011;9071;48.220;14.480;2023-11-21T17:00:36;13.33;;;7.60;;
17890;SDS011;9071;48.220;14.480;2023-11-21T17:05:40;11.73;;;7.83;;
17890;SDS011;9071;48.220;14.480;2023-11-21T17:10:42;9.30;;;6.80;;
17890;SDS011;9071;48.220;14.480;2023-11-21T17:15:44;10.33;;;7.90;;
17890;SDS011;9071;48.220;14.480;2023-11-21T17:20:48;10.50;;;6.90;;
17890;SDS011;9071;48.220;14.480;2023-11-21T17:25:51;10.43;;;7.33;;
17890;SDS011;9071;48.220;14.480;2023-11-21T17:30:53;8.63;;;6.00;;
17890;SDS011;9071;48.220;14.480;2023-11-21T17:35:56;10.60;;;6.40;;
17890;SDS011;9071;48.220;14.480;2023-11-21T17:40:58;12.80;;;8.00;;
17890;SDS011;9071;48.220;14.480;2023-11-21T17:46:00;8.87;;;6.80;;
17890;SDS011;9071;48.220;14.480;2023-11-21T17:51:04;15.37;;;9.87;;
17890;SDS011;9071;48.220;14.480;2023-11-21T17:56:11;15.27;;;10.73;;
17890;SDS011;9071;48.220;14.480;2023-11-21T18:01:14;15.77;;;10.50;;
17890;SDS011;9071;48.220;14.480;2023-11-21T18:06:18;20.90;;;12.60;;
17890;SDS011;9071;48.220;14.480;2023-11-21T18:11:20;20.70;;;13.93;;
17890;SDS011;9071;48.220;14.480;2023-11-21T18:16:22;26.20;;;17.97;;
17890;SDS011;9071;48.220;14.480;2023-11-21T18:21:26;23.30;;;16.17;;
17890;SDS011;9071;48.220;14.480;2023-11-21T18:26:28;14.07;;;10.63;;
17890;SDS011;9071;48.220;14.480;2023-11-21T18:31:30;21.93;;;13.13;;
17890;SDS011;9071;48.220;14.480;2023-11-21T18:36:33;22.93;;;16.00;;
17890;SDS011;9071;48.220;14.480;2023-11-21T18:41:35;19.97;;;14.20;;
17890;SDS011;9071;48.220;14.480;2023-11-21T18:46:37;26.93;;;16.07;;
17890;SDS011;9071;48.220;14.480;2023-11-21T18:51:45;36.30;;;19.83;;
17890;SDS011;9071;48.220;14.480;2023-11-21T18:56:48;30.37;;;18.27;;
17890;SDS011;9071;48.220;14.480;2023-11-21T19:01:50;35.23;;;22.47;;
17890;SDS011;9071;48.220;14.480;2023-11-21T19:06:54;21.33;;;14.90;;
17890;SDS011;9071;48.220;14.480;2023-11-21T19:11:59;18.97;;;12.13;;
17890;SDS011;9071;48.220;14.480;2023-11-21T19:17:02;17.53;;;11.17;;
17890;SDS011;9071;48.220;14.480;2023-11-21T19:22:06;22.47;;;14.63;;
17890;SDS011;9071;48.220;14.480;2023-11-21T19:27:08;23.70;;;15.17;;
17890;SDS011;9071;48.220;14.480;2023-11-21T19:32:10;25.60;;;16.27;;
17890;SDS011;9071;48.220;14.480;2023-11-21T19:37:13;21.33;;;13.57;;
17890;SDS011;9071;48.220;14.480;2023-11-21T19:42:15;21.90;;;13.73;;
17890;SDS011;9071;48.220;14.480;2023-11-21T19:47:17;19.07;;;12.57;;
17890;SDS011;9071;48.220;14.480;2023-11-21T19:52:21;21.40;;;13.47;;
17890;SDS011;9071;48.220;14.480;2023-11-21T19:57:25;17.80;;;12.57;;
17890;SDS011;9071;48.220;14.480;2023-11-21T20:02:27;16.47;;;11.27;;
17890;SDS011;9071;48.220;14.480;2023-11-21T20:07:31;16.63;;;11.60;;
17890;SDS011;9071;48.220;14.480;2023-11-21T20:12:33;20.67;;;13.57;;
17890;SDS011;9071;48.220;14.480;2023-11-21T20:17:35;18.80;;;13.00;;
17890;SDS011;9071;48.220;14.480;2023-11-21T20:22:40;21.80;;;12.73;;
17890;SDS011;9071;48.220;14.480;2023-11-21T20:27:42;19.90;;;14.03;;
17890;SDS011;9071;48.220;14.480;2023-11-21T20:32:44;18.63;;;13.00;;
17890;SDS011;9071;48.220;14.480;2023-11-21T20:37:48;29.10;;;17.37;;
17890;SDS011;9071;48.220;14.480;2023-11-21T20:42:50;30.27;;;19.90;;
17890;SDS011;9071;48.220;14.480;2023-11-21T20:47:52;31.63;;;19.37;;
17890;SDS011;9071;48.220;14.480;2023-11-21T20:52:55;27.93;;;18.00;;
17890;SDS011;9071;48.220;14.480;2023-11-21T20:57:57;30.50;;;17.50;;
17890;SDS011;9071;48.220;14.480;2023-11-21T21:03:00;25.90;;;16.17;;
17890;SDS011;9071;48.220;14.480;2023-11-21T21:08:04;27.10;;;17.00;;
17890;SDS011;9071;48.220;14.480;2023-11-21T21:13:06;30.90;;;18.13;;
17890;SDS011;9071;48.220;14.480;2023-11-21T21:18:08;30.00;;;18.30;;
17890;SDS011;9071;48.220;14.480;2023-11-21T21:23:12;31.80;;;16.93;;
17890;SDS011;9071;48.220;14.480;2023-11-21T21:28:14;27.67;;;16.87;;
17890;SDS011;9071;48.220;14.480;2023-11-21T21:33:16;22.33;;;15.83;;
17890;SDS011;9071;48.220;14.480;2023-11-21T21:38:20;25.67;;;15.20;;
17890;SDS011;9071;48.220;14.480;2023-11-21T21:43:23;22.10;;;14.47;;
17890;SDS011;9071;48.220;14.480;2023-11-21T21:48:27;23.47;;;15.40;;
17890;SDS011;9071;48.220;14.480;2023-11-21T21:53:31;22.03;;;14.37;;
17890;SDS011;9071;48.220;14.480;2023-11-21T21:58:33;23.03;;;14.17;;
17890;SDS011;9071;48.220;14.480;2023-11-21T22:03:35;21.70;;;15.40;;
17890;SDS011;9071;48.220;14.480;2023-11-21T22:08:38;25.20;;;15.67;;
17890;SDS011;9071;48.220;14.480;2023-11-21T22:13:41;22.60;;;15.37;;
17890;SDS011;9071;48.220;14.480;2023-11-21T22:18:43;24.23;;;15.17;;
17890;SDS011;9071;48.220;14.480;2023-11-21T22:23:46;27.80;;;16.60;;
17890;SDS011;9071;48.220;14.480;2023-11-21T22:28:48;29.03;;;18.23;;
17890;SDS011;9071;48.220;14.480;2023-11-21T22:33:51;28.30;;;17.30;;
17890;SDS011;9071;48.220;14.480;2023-11-21T22:38:56;24.53;;;16.50;;
17890;SDS011;9071;48.220;14.480;2023-11-21T22:43:58;25.53;;;16.30;;
17890;SDS011;9071;48.220;14.480;2023-11-21T22:49:00;24.43;;;15.90;;
17890;SDS011;9071;48.220;14.480;2023-11-21T22:54:03;25.10;;;16.00;;
17890;SDS011;9071;48.220;14.480;2023-11-21T22:59:06;27.20;;;16.93;;
17890;SDS011;9071;48.220;14.480;2023-11-21T23:04:08;24.37;;;17.07;;
17890;SDS011;9071;48.220;14.480;2023-11-21T23:09:11;26.90;;;17.70;;
17890;SDS011;9071;48.220;14.480;2023-11-21T23:14:15;28.90;;;17.93;;
17890;SDS011;9071;48.220;14.480;2023-11-21T23:19:18;27.93;;;17.17;;
17890;SDS011;9071;48.220;14.480;2023-11-21T23:24:22;26.10;;;17.33;;
17890;SDS011;9071;48.220;14.480;2023-11-21T23:29:24;28.50;;;18.00;;
17890;SDS011;9071;48.220;14.480;2023-11-21T23:34:26;26.47;;;17.43;;
17890;SDS011;9071;48.220;14.480;2023-11-21T23:39:29;28.43;;;18.43;;
17890;SDS011;9071;48.220;14.480;2023-11-21T23:44:31;31.40;;;19.47;;
17890;SDS011;9071;48.220;14.480;2023-11-21T23:49:33;30.30;;;19.20;;
17890;SDS011;9071;48.220;14.480;2023-11-21T23:54:38;30.77;;;20.07;;
17890;SDS011;9071;48.220;14.480;2023-11-21T23:59:41;31.33;;;19.30;;
